Time;durP1;ratioP1;P1;durP2;ratioP2;P2;SDS_P1;SDS_P2;PMS_P1;PMS_P2;Temp;Humidity;BMP_temperature;BMP_pressure;BME280_temperature;BME280_humidity;BME280_pressure;Samples;Min_cycle;Max_cycle;Signal;HPM_P1;HPM_P2
2022/05/13 00:00:04;;;;;;;2.53;1.77;;;;;;;18.89;76.27;98872.88;5092346;28;20412;-59
2022/05/13 00:03:02;;;;;;;3.60;1.85;;;;;;;19.26;74.43;98868.28;5091181;28;20028;-59
2022/05/13 00:05:49;;;;;;;3.65;2.03;;;;;;;19.50;73.42;98866.72;5092616;28;20388;-59
2022/05/13 00:08:34;;;;;;;2.88;1.88;;;;;;;19.88;71.24;98866.31;5092150;28;20036;-58
2022/05/13 00:11:19;;;;;;;2.38;1.80;;;;;;;19.57;70.60;98877.50;5092162;28;20064;-58
2022/05/13 00:14:05;;;;;;;3.63;2.00;;;;;;;19.24;73.29;98866.78;5090450;28;20044;-58
2022/05/13 00:16:50;;;;;;;3.28;1.90;;;;;;;19.06;74.61;98857.06;5091477;28;20119;-58
2022/05/13 00:19:35;;;;;;;4.85;2.22;;;;;;;18.50;77.73;98854.69;5078125;28;20048;-58
2022/05/13 00:22:20;;;;;;;3.08;1.95;;;;;;;18.78;77.37;98862.53;5090619;28;20061;-59
2022/05/13 00:25:05;;;;;;;3.30;1.77;;;;;;;18.91;76.54;98857.63;5075711;28;20455;-58
2022/05/13 00:27:50;;;;;;;2.50;2.10;;;;;;;19.39;74.45;98853.75;5091304;28;20043;-57
2022/05/13 00:30:38;;;;;;;8.13;2.38;;;;;;;19.02;76.85;98855.69;5090846;28;20039;-58
2022/05/13 00:33:23;;;;;;;2.35;1.77;;;;;;;19.38;74.46;98852.06;5091672;28;20038;-59
2022/05/13 00:36:08;;;;;;;2.38;1.90;;;;;;;19.75;71.53;98850.03;5090736;28;20044;-59
2022/05/13 00:38:53;;;;;;;3.85;1.80;;;;;;;19.45;71.12;98863.72;5090521;28;20092;-59
2022/05/13 00:41:38;;;;;;;2.75;1.63;;;;;;;19.51;71.14;98865.72;5089988;28;20043;-59
2022/05/13 00:44:22;;;;;;;2.85;1.60;;;;;;;19.42;69.49;98866.69;5090109;28;20036;-58
2022/05/13 00:47:08;;;;;;;2.72;1.70;;;;;;;19.57;68.90;98867.72;5090911;28;20102;-59
2022/05/13 00:49:55;;;;;;;2.15;1.58;;;;;;;19.52;69.87;98867.38;5076408;28;20455;-59
2022/05/13 00:52:48;;;;;;;3.03;1.83;;;;;;;19.91;67.21;98871.28;5091349;28;20483;-58
2022/05/13 00:55:42;;;;;;;4.25;1.88;;;;;;;19.73;67.08;98859.97;5091612;28;20040;-58
2022/05/13 00:58:29;;;;;;;2.88;1.42;;;;;;;19.84;66.45;98864.13;5091398;28;20072;-59
2022/05/13 01:01:14;;;;;;;1.98;1.50;;;;;;;19.85;67.08;98861.31;5089920;28;20036;-58
2022/05/13 01:04:05;;;;;;;2.17;1.20;;;;;;;20.03;66.50;98874.50;5090692;28;20459;-59
2022/05/13 01:06:52;;;;;;;2.97;1.75;;;;;;;20.09;65.74;98896.13;5089601;28;20088;-59
2022/05/13 01:09:43;;;;;;;2.25;1.45;;;;;;;20.41;65.83;98942.34;5090547;28;20044;-58
2022/05/13 01:12:42;;;;;;;1.73;1.33;;;;;;;20.74;63.09;98976.97;5090402;28;20047;-61
2022/05/13 01:15:34;;;;;;;2.47;1.10;;;;;;;20.40;64.66;98978.75;5090579;28;20048;-59
2022/05/13 01:18:35;;;;;;;2.80;1.10;;;;;;;20.64;64.26;98976.28;5089410;28;20044;-58
2022/05/13 01:21:29;;;;;;;1.73;1.02;;;;;;;20.48;63.67;98993.91;5083445;28;20467;-59
2022/05/13 01:24:19;;;;;;;2.63;1.55;;;;;;;19.97;66.11;99007.22;5090734;28;20043;-58
2022/05/13 01:27:04;;;;;;;3.75;0.95;;;;;;;19.95;67.65;99002.06;5090956;28;20044;-59
2022/05/13 01:29:51;;;;;;;2.50;1.13;;;;;;;19.78;68.72;99011.81;5090370;28;20475;-59
2022/05/13 01:32:36;;;;;;;4.07;2.38;;;;;;;19.31;72.93;99013.84;5089600;28;20036;-59
2022/05/13 01:35:23;;;;;;;2.72;1.10;;;;;;;19.72;70.89;99015.91;5090547;28;20530;-59
2022/05/13 01:38:08;;;;;;;2.42;1.25;;;;;;;19.54;71.19;99032.75;5088923;28;20048;-58
2022/05/13 01:40:53;;;;;;;4.53;2.00;;;;;;;19.61;73.22;99035.63;5089497;28;20040;-59
2022/05/13 01:43:39;;;;;;;3.08;2.03;;;;;;;19.51;74.58;99027.75;5090911;28;20044;-59
2022/05/13 01:46:24;;;;;;;4.85;2.25;;;;;;;19.26;75.44;99032.09;5090878;28;20115;-59
2022/05/13 01:49:10;;;;;;;3.75;1.85;;;;;;;18.29;81.78;99025.56;5091550;28;20044;-59
2022/05/13 01:51:56;;;;;;;3.20;2.30;;;;;;;17.83;86.21;99021.03;5092879;28;20405;-59
2022/05/13 01:54:41;;;;;;;4.57;2.22;;;;;;;17.78;85.86;99031.22;5111853;28;20440;-60
2022/05/13 01:57:26;;;;;;;3.45;1.73;;;;;;;17.28;88.46;99036.69;5114995;28;20124;-59
2022/05/13 02:00:11;;;;;;;3.65;2.05;;;;;;;16.89;91.11;99060.50;5113887;28;20035;-59
2022/05/13 02:06:03;;;;;;;4.80;2.00;;;;;;;16.05;100.00;99079.22;5101132;28;20043;-58
2022/05/13 02:08:48;;;;;;;3.30;2.20;;;;;;;16.04;100.00;99088.13;5112889;28;20093;-59
2022/05/13 02:11:33;;;;;;;2.65;1.50;;;;;;;15.93;98.83;99079.28;5115161;28;20035;-59
2022/05/13 02:14:18;;;;;;;3.45;1.60;;;;;;;15.88;99.27;99078.84;5114158;28;20063;-59
2022/05/13 02:17:04;;;;;;;2.80;2.05;;;;;;;15.80;99.72;99070.78;5113756;28;20399;-58
2022/05/13 02:19:49;;;;;;;5.00;1.70;;;;;;;15.84;100.00;99061.59;5114402;28;20059;-59
2022/05/13 02:22:34;;;;;;;3.83;1.48;;;;;;;15.69;100.00;99077.78;5113273;28;20032;-58
2022/05/13 02:25:19;;;;;;;2.50;1.60;;;;;;;15.70;100.00;99076.00;5117410;28;20119;-59
2022/05/13 02:28:05;;;;;;;2.38;1.20;;;;;;;15.64;100.00;99070.28;5119979;28;20031;-58
2022/05/13 02:30:50;;;;;;;3.85;1.33;;;;;;;15.57;100.00;99071.75;5115025;28;20051;-59
2022/05/13 02:33:35;;;;;;;2.40;1.38;;;;;;;15.55;100.00;99068.41;5114356;28;20390;-59
2022/05/13 02:36:20;;;;;;;2.97;1.65;;;;;;;15.56;100.00;99077.16;5114324;28;20475;-59
2022/05/13 02:39:05;;;;;;;3.63;1.70;;;;;;;15.60;100.00;99078.59;5113725;28;20042;-59
2022/05/13 02:41:49;;;;;;;2.00;1.23;;;;;;;15.59;100.00;99071.63;5113044;28;20069;-59
2022/05/13 02:44:34;;;;;;;4.03;1.23;;;;;;;15.56;100.00;99070.09;5114523;28;20055;-59
2022/05/13 02:47:19;;;;;;;3.20;1.08;;;;;;;15.35;100.00;99059.53;5114502;28;20443;-58
2022/05/13 02:50:17;;;;;;;2.72;1.42;;;;;;;15.41;100.00;99055.56;5114352;28;20046;-58
2022/05/13 02:53:02;;;;;;;1.92;1.10;;;;;;;15.41;100.00;99045.81;5112413;28;20052;-58
2022/05/13 02:55:47;;;;;;;2.60;1.52;;;;;;;15.63;100.00;99028.16;5098920;28;20093;-58
2022/05/13 02:58:32;;;;;;;2.50;1.25;;;;;;;15.94;100.00;99022.03;5112896;28;20039;-59
2022/05/13 03:01:18;;;;;;;3.83;1.60;;;;;;;15.96;100.00;99025.38;5102422;28;20043;-57
2022/05/13 03:04:04;;;;;;;2.05;1.23;;;;;;;15.68;100.00;99020.69;5093263;28;20141;-59
2022/05/13 03:06:50;;;;;;;1.83;0.90;;;;;;;15.60;100.00;99013.41;5094977;28;20429;-58
2022/05/13 03:09:34;;;;;;;2.85;1.20;;;;;;;15.57;100.00;98997.81;5094472;28;20058;-59
2022/05/13 03:12:19;;;;;;;3.08;0.90;;;;;;;15.59;100.00;98995.88;5091345;28;20028;-59
2022/05/13 03:15:05;;;;;;;2.45;1.05;;;;;;;15.54;100.00;98998.09;5093045;28;20036;-59
2022/05/13 03:17:50;;;;;;;2.55;1.00;;;;;;;15.45;100.00;98989.16;5092225;28;20043;-61
2022/05/13 03:20:36;;;;;;;0.98;0.77;;;;;;;15.51;100.00;98985.16;5091212;28;20044;-58
2022/05/13 03:23:20;;;;;;;1.95;0.85;;;;;;;15.50;100.00;98976.38;5104512;28;20039;-59
2022/05/13 03:26:05;;;;;;;2.90;1.35;;;;;;;15.86;100.00;98964.59;5109748;28;20036;-59
2022/05/13 03:28:50;;;;;;;2.67;0.98;;;;;;;16.39;99.83;98957.31;5112624;28;20108;-59
2022/05/13 03:31:36;;;;;;;4.00;1.88;;;;;;;16.69;98.91;98954.69;5111745;28;20035;-59
2022/05/13 03:34:21;;;;;;;2.55;1.13;;;;;;;16.91;96.56;98953.53;5103471;28;20047;-59
2022/05/13 03:37:06;;;;;;;3.38;1.50;;;;;;;16.92;95.35;98955.22;5112684;28;20056;-59
2022/05/13 03:39:50;;;;;;;1.95;1.02;;;;;;;16.97;94.54;98960.09;5111261;28;20050;-59
2022/05/13 03:42:36;;;;;;;2.97;1.30;;;;;;;17.03;97.03;98953.38;5112968;28;20035;-59
2022/05/13 03:45:21;;;;;;;4.07;1.40;;;;;;;17.21;94.14;98942.91;5105915;28;20036;-58
2022/05/13 03:48:07;;;;;;;3.70;1.73;;;;;;;17.42;93.59;98950.66;5089371;28;20040;-58
2022/05/13 03:50:51;;;;;;;3.05;1.17;;;;;;;17.46;92.73;98952.00;5090398;28;20510;-59
2022/05/13 03:53:38;;;;;;;2.42;1.10;;;;;;;17.46;90.54;98951.19;5090856;28;20039;-58
2022/05/13 03:56:23;;;;;;;3.95;1.50;;;;;;;17.31;91.15;98967.56;5088644;28;20667;-57
2022/05/13 03:59:08;;;;;;;5.45;1.73;;;;;;;17.24;91.39;98988.47;5080363;28;20040;-61
2022/05/13 04:01:52;;;;;;;2.03;1.30;;;;;;;17.03;92.92;98993.91;5090153;28;20043;-59
2022/05/13 04:10:43;;;;;;;2.60;0.95;;;;;;;16.63;97.80;99006.31;5092242;28;20078;-59
2022/05/13 04:16:31;;;;;;;2.58;1.17;;;;;;;16.49;98.99;99010.19;5091779;28;20043;-59
2022/05/13 04:19:16;;;;;;;3.33;1.33;;;;;;;16.16;100.00;99006.97;5108880;28;20483;-59
2022/05/13 04:22:01;;;;;;;2.50;1.45;;;;;;;15.83;100.00;99001.84;5096569;28;20040;-59
2022/05/13 04:24:46;;;;;;;2.58;1.20;;;;;;;15.84;100.00;99006.13;5078430;28;20379;-58
2022/05/13 04:27:31;;;;;;;1.38;1.00;;;;;;;15.70;100.00;99009.97;5091734;28;20035;-60
2022/05/13 04:30:16;;;;;;;2.30;1.08;;;;;;;15.50;100.00;99013.34;5091724;28;20032;-60
2022/05/13 04:33:00;;;;;;;3.17;1.27;;;;;;;16.00;100.00;99011.78;5105510;28;20043;-60
2022/05/13 04:35:45;;;;;;;2.92;1.30;;;;;;;17.11;93.88;99015.25;5105330;28;20036;-59
2022/05/13 04:38:30;;;;;;;5.57;1.48;;;;;;;17.71;89.46;99020.38;5092206;28;20067;-59
2022/05/13 04:44:19;;;;;;;1.20;0.60;;;;;;;16.03;97.99;99023.06;5091754;28;20098;-59
2022/05/13 04:48:15;;;;;;;1.02;0.60;;;;;;;15.73;100.00;99021.09;5091685;28;20044;-59
2022/05/13 04:50:09;;;;;;;5.88;1.33;;;;;;;16.11;100.00;99026.69;5092513;28;20048;-58
2022/05/13 04:52:54;;;;;;;2.92;1.10;;;;;;;16.70;95.10;99030.41;5093333;28;20354;-59
2022/05/13 04:55:40;;;;;;;3.40;1.10;;;;;;;17.28;92.07;99031.38;5092092;28;20048;-60
2022/05/13 04:58:27;;;;;;;5.78;1.10;;;;;;;17.42;90.97;99032.72;5090383;28;20450;-59
2022/05/13 05:01:15;;;;;;;3.33;0.85;;;;;;;17.63;90.01;99037.00;5090841;28;20123;-59
2022/05/13 05:03:59;;;;;;;4.13;1.10;;;;;;;17.82;89.01;99045.88;5107119;28;20044;-60
2022/05/13 05:06:44;;;;;;;2.75;0.88;;;;;;;17.51;89.75;99052.25;5093106;28;20047;-59
2022/05/13 05:09:30;;;;;;;2.45;0.82;;;;;;;17.49;91.07;99051.53;5078224;28;20035;-60
2022/05/13 05:12:15;;;;;;;2.25;0.93;;;;;;;17.47;91.64;99053.47;5078649;28;20047;-59
2022/05/13 05:15:00;;;;;;;2.15;0.90;;;;;;;17.68;91.06;99052.44;5095087;28;20105;-60
2022/05/13 05:17:45;;;;;;;3.20;1.30;;;;;;;17.70;90.24;99056.63;5090882;28;20040;-59
2022/05/13 05:20:30;;;;;;;3.42;0.98;;;;;;;17.88;88.84;99050.56;5078417;28;20036;-59
2022/05/13 05:23:30;;;;;;;2.40;1.23;;;;;;;18.04;88.54;99055.25;5092702;28;20471;-59
2022/05/13 05:26:15;;;;;;;3.35;0.60;;;;;;;17.60;90.62;99067.25;5095071;28;20032;-59
2022/05/13 05:28:59;;;;;;;1.33;0.70;;;;;;;17.74;89.88;99059.81;5052827;28;20038;-60
2022/05/13 05:31:45;;;;;;;2.00;1.25;;;;;;;18.23;86.90;99056.13;5080311;28;20464;-59
2022/05/13 05:34:30;;;;;;;0.88;0.60;;;;;;;18.35;86.38;99056.78;5094401;28;20455;-59
2022/05/13 05:37:15;;;;;;;1.35;0.73;;;;;;;18.57;84.76;99057.34;5095237;28;20413;-59
2022/05/13 05:40:00;;;;;;;0.75;0.55;;;;;;;18.01;86.83;99054.69;5065739;28;20044;-60
2022/05/13 05:42:46;;;;;;;1.55;1.00;;;;;;;18.10;86.43;99057.31;5093864;28;20097;-59
2022/05/13 05:45:31;;;;;;;2.10;0.63;;;;;;;17.92;88.19;99064.38;5079630;28;20047;-59
2022/05/13 05:48:22;;;;;;;1.63;0.93;;;;;;;18.02;87.57;99059.84;5093794;28;20043;-59
2022/05/13 05:51:06;;;;;;;1.70;0.88;;;;;;;18.13;87.50;99065.97;5094262;28;20390;-59
2022/05/13 05:57:13;;;;;;;1.65;0.75;;;;;;;18.26;86.95;99065.63;5067949;28;20051;-59
2022/05/13 06:00:00;;;;;;;1.30;0.73;;;;;;;18.04;87.97;99070.31;5068432;28;20074;-60
2022/05/13 06:02:45;;;;;;;2.65;0.80;;;;;;;18.26;87.15;99068.28;5093637;28;20470;-60
2022/05/13 06:05:30;;;;;;;1.05;0.70;;;;;;;18.10;88.19;99067.06;5093622;28;20039;-60
2022/05/13 06:08:15;;;;;;;1.77;0.95;;;;;;;18.07;88.29;99064.69;5093290;28;20040;-58
2022/05/13 06:10:59;;;;;;;2.38;1.00;;;;;;;18.43;86.40;99056.03;5093443;28;20036;-60
2022/05/13 06:13:44;;;;;;;2.25;1.00;;;;;;;18.97;83.48;99057.88;5094592;28;20044;-60
2022/05/13 06:16:30;;;;;;;1.23;0.80;;;;;;;18.58;85.84;99056.38;5079528;28;20048;-59
2022/05/13 06:19:15;;;;;;;1.58;0.80;;;;;;;18.93;84.11;99056.53;5093278;28;20370;-59
2022/05/13 06:22:00;;;;;;;4.13;0.95;;;;;;;19.03;83.31;99059.91;5065967;28;20071;-59
2022/05/13 06:24:45;;;;;;;2.22;1.08;;;;;;;19.02;83.48;99055.59;5094612;28;20032;-59
2022/05/13 06:27:30;;;;;;;1.17;0.90;;;;;;;18.75;85.19;99056.53;5079441;28;20044;-59
2022/05/13 06:30:19;;;;;;;1.85;0.85;;;;;;;18.96;83.51;99054.38;5092633;28;20036;-59
2022/05/13 06:33:05;;;;;;;3.63;1.20;;;;;;;18.92;83.37;99053.03;5093711;28;20071;-59
2022/05/13 06:35:50;;;;;;;2.08;1.20;;;;;;;19.12;82.48;99058.22;5092602;28;20039;-59
2022/05/13 06:38:34;;;;;;;1.95;1.10;;;;;;;19.06;83.18;99054.28;5092903;28;20036;-59
2022/05/13 06:41:19;;;;;;;4.30;1.17;;;;;;;19.40;81.58;99057.25;5085693;28;20032;-56
2022/05/13 06:44:09;;;;;;;2.25;1.48;;;;;;;19.11;82.60;99063.66;5088158;28;20067;-57
2022/05/13 06:46:54;;;;;;;1.70;1.13;;;;;;;18.92;84.18;99053.03;5091754;28;20036;-56
2022/05/13 06:49:38;;;;;;;2.95;1.33;;;;;;;18.73;85.51;99056.69;5076355;28;20037;-57
2022/05/13 06:52:23;;;;;;;2.53;1.58;;;;;;;18.87;85.05;99054.50;5107956;28;20482;-57
2022/05/13 06:55:10;;;;;;;2.03;1.50;;;;;;;18.59;85.93;99050.91;5091752;28;20047;-56
2022/05/13 06:57:55;;;;;;;2.25;1.27;;;;;;;18.69;86.33;99052.66;5090687;28;20075;-58
2022/05/13 07:00:43;;;;;;;1.95;1.35;;;;;;;18.48;88.24;99059.06;5090788;28;20487;-57
2022/05/13 07:03:28;;;;;;;2.95;1.42;;;;;;;18.14;90.29;99067.63;5089494;28;20047;-57
2022/05/13 07:06:13;;;;;;;2.55;1.30;;;;;;;17.98;92.89;99066.44;5092039;28;20379;-56
2022/05/13 07:08:57;;;;;;;4.25;1.70;;;;;;;17.76;97.47;99078.25;5090442;28;20043;-56
2022/05/13 07:11:44;;;;;;;3.20;1.77;;;;;;;18.38;93.40;99087.50;5091231;28;20117;-57
2022/05/13 07:14:29;;;;;;;8.35;1.95;;;;;;;17.82;95.21;99086.41;5076484;28;20077;-56
2022/05/13 07:17:13;;;;;;;3.20;1.80;;;;;;;18.15;93.64;99080.75;5087543;28;20097;-56
2022/05/13 07:19:58;;;;;;;3.58;1.90;;;;;;;18.56;90.63;99072.44;5090382;28;20387;-56
2022/05/13 07:22:43;;;;;;;5.50;2.08;;;;;;;19.08;87.52;99073.56;5090689;28;20073;-57
2022/05/13 07:25:28;;;;;;;4.55;2.08;;;;;;;18.84;89.02;99085.66;5075893;28;20486;-57
2022/05/13 07:28:13;;;;;;;6.47;2.25;;;;;;;18.61;91.66;99079.94;5090306;28;20067;-58
2022/05/13 07:31:00;;;;;;;5.18;2.17;;;;;;;19.25;89.63;99089.69;5105607;28;20072;-56
2022/05/13 07:33:45;;;;;;;5.03;2.15;;;;;;;19.47;87.60;99082.19;5071419;28;20498;-58
2022/05/13 07:36:30;;;;;;;5.32;1.85;;;;;;;19.42;87.16;99089.81;5096082;28;20086;-56
2022/05/13 07:42:18;;;;;;;3.78;2.33;;;;;;;19.98;84.06;99094.78;5092173;28;20048;-55
2022/05/13 07:45:04;;;;;;;3.05;2.42;;;;;;;19.70;85.16;99090.47;5092588;28;20096;-58
2022/05/13 07:47:50;;;;;;;3.90;2.17;;;;;;;19.92;84.54;99090.94;5076582;28;20097;-57
2022/05/13 07:50:39;;;;;;;3.45;1.60;;;;;;;20.35;81.99;99090.13;5090572;28;20036;-59
2022/05/13 07:53:25;;;;;;;4.75;2.45;;;;;;;19.96;86.17;99096.75;5092604;28;20127;-59
2022/05/13 07:56:11;;;;;;;3.78;2.33;;;;;;;19.18;90.94;99086.78;5078184;28;20044;-57
2022/05/13 07:58:57;;;;;;;4.00;2.55;;;;;;;18.90;95.44;99100.13;5071587;28;20043;-61
2022/05/13 08:01:43;;;;;;;6.18;2.58;;;;;;;18.59;96.73;99100.47;5048895;28;20100;-61
2022/05/13 08:04:29;;;;;;;4.15;2.70;;;;;;;18.78;95.42;99106.63;5060875;28;20474;-57
2022/05/13 08:07:15;;;;;;;5.13;2.75;;;;;;;18.43;97.98;99109.06;5092141;28;20032;-60
2022/05/13 08:09:59;;;;;;;4.25;2.53;;;;;;;18.00;100.00;99117.50;5075647;28;20148;-56
2022/05/13 08:12:45;;;;;;;4.68;2.95;;;;;;;17.91;100.00;99127.13;5090736;28;20035;-59
2022/05/13 08:15:30;;;;;;;5.82;3.45;;;;;;;17.63;100.00;99127.03;5090829;28;20051;-57
2022/05/13 08:18:16;;;;;;;4.65;2.60;;;;;;;17.70;100.00;99128.16;5088801;28;20066;-58
2022/05/13 08:21:02;;;;;;;3.50;2.85;;;;;;;17.82;100.00;99131.47;5088511;28;20048;-58
2022/05/13 08:23:47;;;;;;;6.35;2.75;;;;;;;17.61;100.00;99124.53;5090237;28;20089;-57
2022/05/13 08:26:32;;;;;;;3.63;2.58;;;;;;;17.58;100.00;99131.94;5088587;28;20032;-39
2022/05/13 08:29:17;;;;;;;4.00;3.00;;;;;;;17.19;100.00;99119.56;5100549;28;20428;-57
2022/05/13 08:32:02;;;;;;;5.35;2.13;;;;;;;16.96;100.00;99115.34;5089059;28;20092;-59
2022/05/13 08:34:47;;;;;;;4.18;2.40;;;;;;;17.47;100.00;99114.41;5089019;28;20040;-59
2022/05/13 08:37:39;;;;;;;3.85;2.80;;;;;;;17.53;100.00;99111.16;5102189;28;20069;-59
2022/05/13 08:40:52;;;;;;;2.97;2.05;;;;;;;17.55;100.00;99111.88;5075638;28;20044;-57
2022/05/13 08:43:43;;;;;;;5.00;2.05;;;;;;;17.73;100.00;99111.13;5089640;28;20044;-57
2022/05/13 08:46:34;;;;;;;;;;;;;;;17.73;100.00;99105.84;5090434;28;20051;-57
2022/05/13 08:49:51;;;;;;;6.70;2.93;;;;;;;17.66;100.00;99104.75;5104781;28;19972;-59
2022/05/13 08:53:09;;;;;;;3.35;2.35;;;;;;;17.53;100.00;99103.22;5091196;28;20056;-57
2022/05/13 08:56:02;;;;;;;4.30;2.55;;;;;;;17.55;100.00;99097.78;5089859;28;20498;-57
2022/05/13 08:59:07;;;;;;;7.20;3.03;;;;;;;17.36;100.00;99113.56;5090829;28;20040;-57
2022/05/13 09:01:57;;;;;;;7.13;3.17;;;;;;;17.40;100.00;99105.34;5093601;28;20036;-57
2022/05/13 09:05:23;;;;;;;4.22;2.70;;;;;;;17.50;100.00;99103.50;5094743;28;20064;-58
2022/05/13 09:08:08;;;;;;;2.50;1.85;;;;;;;17.57;100.00;99099.34;5094764;28;20471;-59
2022/05/13 09:11:07;;;;;;;4.47;2.85;;;;;;;17.83;100.00;99100.50;5080015;28;20395;-58
2022/05/13 09:14:01;;;;;;;3.97;2.35;;;;;;;18.06;100.00;99098.34;5094838;28;20480;-59
2022/05/13 09:16:52;;;;;;;3.38;2.05;;;;;;;18.64;98.79;99097.38;5093075;28;20035;-59
2022/05/13 09:19:41;;;;;;;5.47;2.80;;;;;;;18.34;100.00;99101.03;5094639;28;20040;-59
2022/05/13 09:22:44;;;;;;;3.50;2.60;;;;;;;18.82;99.15;99092.06;5093291;28;20032;-59
2022/05/13 09:25:54;;;;;;;4.65;2.45;;;;;;;18.82;99.49;99102.69;5098217;28;20567;-59
2022/05/13 09:29:03;;;;;;;4.82;3.15;;;;;;;18.40;100.00;99109.38;5099712;28;20035;-59
2022/05/13 09:32:25;;;;;;;5.03;3.03;;;;;;;19.18;95.98;99102.72;5095762;28;20059;-59
2022/05/13 09:35:17;;;;;;;;;;;;;;;19.61;99.95;99107.38;5094055;28;20036;-57
2022/05/13 09:38:19;;;;;;;5.63;3.67;;;;;;;19.68;96.13;99113.72;5091650;28;19920;-58
2022/05/13 09:41:08;;;;;;;5.25;2.10;;;;;;;19.33;99.80;99103.03;5093346;28;20395;-58
2022/05/13 09:43:55;;;;;;;3.58;2.45;;;;;;;20.62;92.20;99104.19;5094009;28;20051;-58
2022/05/13 09:46:47;;;;;;;3.75;2.40;;;;;;;21.14;90.38;99104.13;5065893;28;20423;-58
2022/05/13 09:49:33;;;;;;;8.85;2.20;;;;;;;20.81;88.90;99078.25;5108272;28;20068;-59
2022/05/13 09:52:37;;;;;;;4.43;2.50;;;;;;;20.68;88.30;99092.91;5093255;28;20066;-59
2022/05/13 09:55:55;;;;;;;4.15;3.05;;;;;;;19.75;90.70;99089.19;5093382;28;20044;-59
2022/05/13 09:58:53;;;;;;;4.63;3.20;;;;;;;20.17;91.64;99091.06;5093231;28;20493;-59
2022/05/13 10:01:37;;;;;;;4.55;2.63;;;;;;;20.42;85.71;99085.84;5093265;28;20471;-59
2022/05/13 10:04:27;;;;;;;7.53;2.70;;;;;;;19.93;87.93;99091.75;5077619;28;20459;-60
2022/05/13 10:07:15;;;;;;;3.75;1.98;;;;;;;21.11;83.44;99081.31;5077783;28;20070;-59
2022/05/13 10:16:23;;;;;;;2.75;2.10;;;;;;;21.04;82.60;99077.66;5091740;28;20063;-59
2022/05/13 10:19:25;;;;;;;2.70;1.42;;;;;;;21.63;81.11;99079.28;5092649;28;20051;-59
2022/05/13 10:22:23;;;;;;;6.43;3.15;;;;;;;21.36;81.20;99080.47;5091469;28;20047;-58
2022/05/13 10:25:16;;;;;;;2.70;2.00;;;;;;;22.08;76.09;99080.69;5091397;28;20044;-59
2022/05/13 10:28:07;;;;;;;3.03;1.98;;;;;;;23.19;70.84;99068.16;5092312;28;20044;-59
2022/05/13 10:31:05;;;;;;;3.80;1.88;;;;;;;23.30;72.98;99067.72;5091201;28;20040;-58
2022/05/13 10:33:57;;;;;;;3.40;1.70;;;;;;;22.88;72.69;99065.41;5090993;28;20387;-59
2022/05/13 10:37:09;;;;;;;2.63;1.90;;;;;;;22.96;69.74;99059.19;5091374;28;20113;-59
2022/05/13 10:40:18;;;;;;;4.45;2.22;;;;;;;23.93;67.38;99061.25;5091465;28;20077;-60
2022/05/13 10:43:27;;;;;;;2.30;1.70;;;;;;;23.36;70.18;99050.13;5092870;28;20050;-59
2022/05/13 10:46:21;;;;;;;3.75;2.30;;;;;;;23.31;67.28;99047.16;5091665;28;20035;-58
2022/05/13 10:49:06;;;;;;;2.05;1.70;;;;;;;24.77;65.08;99036.91;5091626;28;20072;-57
2022/05/13 10:51:58;;;;;;;4.03;1.80;;;;;;;23.96;66.14;99039.47;5036793;28;1152877;-59
2022/05/13 10:55:11;;;;;;;3.25;1.90;;;;;;;23.68;66.64;99039.31;5092461;28;20036;-58
2022/05/13 10:58:28;;;;;;;2.53;1.70;;;;;;;24.29;66.07;99032.91;5092113;28;20047;-59
2022/05/13 11:01:21;;;;;;;2.53;1.80;;;;;;;23.74;66.13;99038.56;5080346;28;20466;-59
2022/05/13 11:04:39;;;;;;;3.63;1.98;;;;;;;24.41;64.40;99025.22;5093152;28;20528;-59
2022/05/13 11:07:44;;;;;;;4.68;2.10;;;;;;;24.77;63.80;99023.50;5092569;28;20048;-58
2022/05/13 11:10:55;;;;;;;6.35;1.75;;;;;;;26.87;56.80;99026.41;5078289;28;20479;-59
2022/05/13 11:13:52;;;;;;;2.38;1.65;;;;;;;25.14;61.23;99020.72;5093320;28;20368;-60
2022/05/13 11:16:51;;;;;;;8.73;1.90;;;;;;;24.87;60.30;99027.69;5077312;28;20036;-58
2022/05/13 11:19:49;;;;;;;2.47;1.58;;;;;;;24.72;62.29;99024.09;5061308;28;20053;-59
2022/05/13 11:22:42;;;;;;;6.68;2.20;;;;;;;25.97;57.13;99023.69;5091756;28;20371;-59
2022/05/13 11:28:36;;;;;;;2.45;1.73;;;;;;;24.84;61.04;99020.88;5091008;28;20058;-59
2022/05/13 11:31:40;;;;;;;3.13;1.55;;;;;;;26.68;56.41;99020.81;5092066;28;20036;-58
2022/05/13 11:34:47;;;;;;;2.50;1.60;;;;;;;26.36;55.98;99012.53;5105114;28;20047;-59
2022/05/13 11:37:37;;;;;;;2.55;1.77;;;;;;;25.36;56.09;99006.44;5070957;28;20032;-59
2022/05/13 11:40:28;;;;;;;3.03;1.80;;;;;;;26.07;56.10;98997.34;5085330;28;20090;-59
2022/05/13 11:43:22;;;;;;;2.08;1.50;;;;;;;27.86;50.90;98995.28;5071982;28;20124;-58
2022/05/13 11:46:31;;;;;;;2.90;1.80;;;;;;;24.73;56.01;98990.06;5071839;28;20459;-59
2022/05/13 11:49:25;;;;;;;4.05;1.90;;;;;;;25.02;58.02;98982.09;5085251;28;20072;-59
2022/05/13 11:52:13;;;;;;;3.45;1.90;;;;;;;25.45;53.84;98971.25;5084877;28;20048;-59
2022/05/13 11:55:21;;;;;;;2.30;1.60;;;;;;;25.27;54.88;98969.06;5072163;28;20036;-59
2022/05/13 11:58:07;;;;;;;2.75;2.42;;;;;;;24.72;53.68;98961.66;5071739;28;20428;-59
2022/05/13 12:00:53;;;;;;;2.40;1.42;;;;;;;27.06;49.68;98955.72;5095325;28;20040;-59
2022/05/13 12:03:39;;;;;;;2.90;2.00;;;;;;;26.60;47.84;98960.09;5091128;28;20080;-58
2022/05/13 12:06:49;;;;;;;2.55;1.33;;;;;;;27.28;48.02;98944.75;5092180;28;20071;-59
2022/05/13 12:09:40;;;;;;;;;;;;;;;27.69;47.07;98954.56;5092281;28;20040;-59
2022/05/13 12:13:17;;;;;;;4.20;1.98;;;;;;;27.11;46.00;98944.34;5091036;28;19920;-59
2022/05/13 12:16:14;;;;;;;3.55;2.08;;;;;;;26.48;48.26;98933.00;5003732;28;20334;-59
2022/05/13 12:19:43;;;;;;;3.10;1.90;;;;;;;26.10;50.40;98934.38;5091884;28;20124;-58
2022/05/13 12:22:31;;;;;;;2.58;2.13;;;;;;;26.95;48.21;98937.53;5058325;28;20395;-59
2022/05/13 12:25:33;;;;;;;3.67;2.35;;;;;;;26.86;46.33;98928.03;5091722;28;20379;-59
2022/05/13 12:28:18;;;;;;;2.97;1.83;;;;;;;27.97;46.24;98931.88;5090273;28;20051;-59
2022/05/13 12:31:34;;;;;;;3.47;2.42;;;;;;;26.70;48.13;98924.75;5090616;28;20035;-60
2022/05/13 12:37:47;;;;;;;2.90;2.33;;;;;;;27.67;44.78;98911.69;5091831;28;20040;-58
2022/05/13 12:40:41;;;;;;;3.85;2.30;;;;;;;27.39;45.62;98927.13;5091222;28;20486;-59
2022/05/13 12:43:45;;;;;;;2.85;2.10;;;;;;;28.02;44.74;98908.63;5091506;28;20060;-59
2022/05/13 12:46:46;;;;;;;3.03;2.30;;;;;;;27.65;45.78;98903.00;5091509;28;20048;-59
2022/05/13 12:49:49;;;;;;;;;;;;;;;26.26;49.90;98906.31;5090846;28;20119;-59
2022/05/13 12:52:37;;;;;;;2.75;2.08;;;;;;;25.49;49.38;98904.66;5090361;28;19916;-59
2022/05/13 12:55:24;;;;;;;3.85;2.22;;;;;;;25.08;52.66;98903.63;5090653;28;20237;-60
2022/05/13 12:58:12;;;;;;;3.25;2.13;;;;;;;27.45;47.36;98903.13;5092147;28;20059;-59
2022/05/13 13:00:57;;;;;;;5.40;2.42;;;;;;;27.25;44.24;98887.88;5091397;28;20485;-60
2022/05/13 13:03:45;;;;;;;3.53;2.17;;;;;;;26.15;49.41;98880.06;5090328;28;20039;-60
2022/05/13 13:06:42;;;;;;;4.70;2.45;;;;;;;25.91;48.20;98882.31;5091454;28;20060;-60
2022/05/13 13:09:27;;;;;;;3.50;2.33;;;;;;;24.23;51.51;98871.28;5076594;28;20084;-60
2022/05/13 13:12:23;;;;;;;5.03;2.10;;;;;;;25.44;50.83;98861.53;5092512;28;20498;-59
2022/05/13 13:15:44;;;;;;;4.82;2.55;;;;;;;25.09;49.65;98852.50;5092780;28;20036;-59
2022/05/13 13:18:31;;;;;;;2.70;2.10;;;;;;;26.66;46.67;98853.66;5056428;28;20117;-59
2022/05/13 13:21:16;;;;;;;4.57;2.33;;;;;;;25.86;49.98;98837.31;5094071;28;20044;-59
2022/05/13 13:24:01;;;;;;;3.85;2.20;;;;;;;26.72;46.46;98850.16;5090942;28;20036;-60
2022/05/13 13:26:50;;;;;;;4.65;2.78;;;;;;;26.69;48.61;98843.34;5090700;28;20068;-45
2022/05/13 13:29:37;;;;;;;4.43;2.00;;;;;;;26.69;47.32;98850.56;5093297;28;20043;-56
2022/05/13 13:32:23;;;;;;;5.93;2.03;;;;;;;25.83;49.17;98843.94;5111377;28;20398;-58
2022/05/13 13:35:08;;;;;;;2.47;1.92;;;;;;;26.51;47.23;98841.28;5109827;28;20051;-60
2022/05/13 13:37:53;;;;;;;2.80;1.75;;;;;;;27.17;43.46;98849.44;5080084;28;20702;-61
2022/05/13 13:40:43;;;;;;;3.42;1.33;;;;;;;27.12;43.28;98841.19;5090347;28;20039;-59
2022/05/13 13:43:30;;;;;;;2.87;1.40;;;;;;;27.24;43.57;98844.03;5088186;28;20043;-59
2022/05/13 13:46:22;;;;;;;2.95;1.85;;;;;;;27.42;43.13;98847.88;5093185;28;20031;-59
2022/05/13 13:49:09;;;;;;;3.55;1.70;;;;;;;26.93;44.43;98841.00;5094758;28;20474;-62
2022/05/13 13:51:57;;;;;;;3.47;1.95;;;;;;;27.28;43.97;98834.50;5098268;28;20056;-60